• Join FlightAware (Why Join?)
  • Login
  • US Flag 
09:00AM EDT


 

Airport Tracker/Info


-or-


 

Live Flight TrackerFlight Track Log ✈ UAL3732 ✈ 14-Apr-2013 ✈ KBTV - KORD

Flight Track Log - Related Links

Times and Time Zones

All times are in EDT time to prevent confusion due to time zone crossing. See the UAL3732 flight status page for this flight to view local times or setup timezone preferences in your user account.

Time Position Orientation Groundspeed Altitude Reporting Facility
EDT Latitude Longitude Course Direction KTS MPH feet Rate Location/Type
05:37PM 44.4856 -73.2606 255° West 204 235 4,900  Level Boston Center
05:38PM 44.4033 -73.5294 253° West  Level FlightAware Approximate
05:38PM 44.4722 -73.3506 258° West 226 260 7,100  Level Boston Center
05:39PM 44.3765 -73.6541 253° West  Level FlightAware Approximate
05:39PM 44.4528 -73.4522 255° West 258 297 9,700  Level Boston Center
05:40PM 44.3552 -73.7806 259° West  Level FlightAware Approximate
05:40PM 44.4350 -73.5594 257° West 277 319 11,600  Level Boston Center
05:41PM 44.3370 -73.9081 259° West  Level FlightAware Approximate
05:41PM 44.4131 -73.6811 256° West 311 358 13,500  Level Boston Center
05:42PM 44.3143 -74.0342 255° West  Level FlightAware Approximate
05:42PM 44.3908 -73.7967 255° West 331 381 16,000  Level Boston Center
05:43PM 44.3686 -73.9183 256° West 337 388 18,000 2,520 Climbing Boston Center
05:44PM 44.3461 -74.0367 255° West 331 381 21,000 2,160 Climbing Boston Center
05:45PM 44.3214 -74.1636 255° West 319 367 22,300 1,320 Climbing Boston Center
05:46PM 44.2986 -74.2878 256° West 319 367 23,700 1,380 Climbing Boston Center
05:47PM 44.2756 -74.4147 256° West 325 374 25,100 1,320 Climbing Boston Center
05:48PM 44.2503 -74.5442 255° West 338 389 26,400 1,320 Climbing Boston Center
05:49PM 44.2272 -74.6739 256° West 346 398 27,700 1,080 Climbing Boston Center
05:50PM 44.2036 -74.8092 256° West 352 405 28,600 840 Climbing Boston Center
05:51PM 44.1758 -74.9442 254° West 357 411 29,500 900 Climbing Boston Center
05:52PM 44.1497 -75.0819 255° West 357 411 30,500 900 Climbing Boston Center
05:53PM 44.1258 -75.2081 255° West 362 417 31,400 780 Climbing Boston Center
05:54PM 44.0975 -75.3456 254° West 372 428 32,100 780 Climbing Boston Center
05:55PM 44.0708 -75.4858 255° West 372 428 33,200 1,440 Climbing Boston Center
05:56PM 44.0417 -75.6433 256° West 372 428 35,300 1,620 Climbing Boston Center
05:57PM 44.0172 -75.7661 255° West 357 411 36,400 600 Climbing Boston Center
05:58PM 43.9928 -75.8889 255° West 343 395 36,600 240 Climbing Boston Center
05:59PM 43.9661 -76.0114 253° West 337 388 37,000 300 Climbing Boston Center
06:00PM 43.9497 -76.1344 260° West 331 381 37,200 300 Climbing Boston Center
06:01PM 43.9372 -76.2608 262° West 337 388 37,700 360 Climbing Boston Center
06:02PM 43.9289 -76.3872 265° West 337 388 38,000 120 Climbing Boston Center
06:03PM 43.9158 -76.5161 262° West 337 388 38,000  Level Boston Center
06:04PM 43.9050 -76.6478 264° West 337 388 38,000  Level Boston Center
06:05PM 43.8833 -76.7833 258° West 330 380 38,000  Level Toronto Center
06:06PM 43.8667 -76.9000 259° West 330 380 38,000  Level Toronto Center
06:07PM 43.8500 -77.0167 259° West 330 380 38,000  Level Toronto Center
06:08PM 43.8333 -77.1667 261° West 330 380 38,000  Level Toronto Center
06:09PM 43.8167 -77.2833 259° West 330 380 38,000  Level Toronto Center
06:10PM 43.8167 -77.4167 270° West 330 380 38,000  Level Toronto Center
06:11PM 43.8000 -77.5333 259° West 330 380 38,000  Level Toronto Center
06:12PM 43.7833 -77.6667 260° West 330 380 38,000  Level Toronto Center
06:13PM 43.7833 -77.7833 270° West 320 368 38,000  Level Toronto Center
06:14PM 43.7667 -77.9000 259° West 320 368 38,000  Level Toronto Center
06:15PM 43.7500 -78.0167 259° West 310 357 38,000  Level Toronto Center
06:16PM 43.7333 -78.1333 259° West 310 357 38,000  Level Toronto Center
06:17PM 43.7167 -78.2500 259° West 300 345 38,000  Level Toronto Center
06:18PM 43.7000 -78.3667 259° West 300 345 38,000  Level Toronto Center
06:19PM 43.7000 -78.4833 270° West 300 345 38,000  Level Toronto Center
06:20PM 43.7000 -78.6000 270° West 300 345 38,000  Level Toronto Center
06:21PM 43.6833 -78.7167 259° West 300 345 38,000  Level Toronto Center
06:22PM 43.6667 -78.8333 259° West 300 345 38,000  Level Toronto Center
06:23PM 43.6667 -78.9333 270° West 300 345 38,000  Level Toronto Center
06:24PM 43.6500 -79.0333 257° West 300 345 38,000  Level Toronto Center
06:25PM 43.6333 -79.1667 260° West 300 345 38,000  Level Toronto Center
06:26PM 43.6333 -79.2667 270° West 300 345 38,000  Level Toronto Center
06:27PM 43.6167 -79.3833 259° West 300 345 38,000  Level Toronto Center
06:28PM 43.6000 -79.5000 259° West 290 334 38,000  Level Toronto Center
06:29PM 43.6000 -79.6167 270° West 300 345 38,000  Level Toronto Center
06:30PM 43.5833 -79.7333 259° West 290 334 38,000  Level Toronto Center
06:31PM 43.5667 -79.8333 257° West 290 334 38,000  Level Toronto Center
06:32PM 43.5667 -79.9333 270° West 290 334 38,000  Level Toronto Center
06:33PM 43.5500 -80.0500 259° West 290 334 38,000  Level Toronto Center
06:34PM 43.5333 -80.1667 259° West 290 334 38,000  Level Toronto Center
06:35PM 43.5333 -80.2833 270° West 300 345 38,000  Level Toronto Center
06:36PM 43.5167 -80.3833 257° West 300 345 38,000  Level Toronto Center
06:37PM 43.5000 -80.5000 259° West 300 345 38,000  Level Toronto Center
06:38PM 43.5000 -80.6167 270° West 300 345 38,000  Level Toronto Center
06:39PM 43.4833 -80.7333 259° West 300 345 38,000  Level Toronto Center
06:40PM 43.4500 -80.8500 249° West 300 345 38,000  Level Toronto Center
06:41PM 43.4500 -80.9667 270° West 310 357 38,000  Level Toronto Center
06:42PM 43.4167 -81.0833 249° West 310 357 38,000  Level Toronto Center
06:43PM 43.4000 -81.2000 259° West 320 368 38,000  Level Toronto Center
06:44PM 43.3833 -81.3000 257° West 330 380 38,000  Level Toronto Center
06:45PM 43.3667 -81.4500 261° West 330 380 38,000  Level Toronto Center
06:46PM 43.3500 -81.5667 259° West 330 380 38,000  Level Toronto Center
06:47PM 43.3333 -81.7000 260° West 340 391 38,000  Level Toronto Center
06:48PM 43.3167 -81.8167 259° West 340 391 38,000  Level Toronto Center
06:49PM 43.2667 -81.9500 243° Southwest 340 391 38,000  Level Toronto Center
06:50PM 43.2500 -82.0667 259° West 340 391 38,000  Level Toronto Center
06:51PM 43.2333 -82.2000 260° West 340 391 38,000  Level Toronto Center
06:52PM 43.2167 -82.3167 259° West 340 391 38,000 -300 Level Toronto Center
06:53PM 43.2000 -82.4500 260° West 340 391 37,400 -840 Descending Toronto Center
06:54PM 43.1833 -82.5833 260° West 350 403 36,400 -1,020 Descending Toronto Center
06:55PM 43.1333 -82.7167 243° Southwest 360 414 35,400 -900 Descending Toronto Center
06:55PM 43.1503 -82.7600 298° West 356 410 35,200 -900 Descending Cleveland Center
06:56PM 43.1225 -82.9014 255° West 378 435 34,200 -1,020 Descending Cleveland Center
06:57PM 43.0944 -83.0453 255° West 390 449 33,200 -1,140 Descending Cleveland Center
06:58PM 43.0681 -83.2064 257° West 395 455 32,000 -600 Descending Cleveland Center
06:59PM 43.0397 -83.3472 255° West 395 455 32,000  Level Cleveland Center
07:00PM 43.0133 -83.4881 256° West 395 455 32,000  Level Cleveland Center
07:01PM 42.9867 -83.6344 256° West 395 455 32,000  Level Cleveland Center
07:02PM 42.9617 -83.7864 257° West 395 455 32,000  Level Cleveland Center
07:03PM 42.9469 -83.9389 263° West 401 461 32,000  Level Cleveland Center
07:04PM 42.9342 -84.0914 264° West 406 467 32,000  Level Cleveland Center
07:05PM 42.9169 -84.2406 261° West 406 467 32,000  Level Cleveland Center
07:06PM 42.9042 -84.3758 263° West 406 467 32,000  Level Cleveland Center
07:07PM 42.8889 -84.5281 262° West 406 467 32,000  Level Cleveland Center
07:08PM 42.8722 -84.7042 263° West 403 464 32,000  Level Chicago Center
07:09PM 42.8567 -84.8553 262° West 404 465 32,000  Level Chicago Center
07:11PM 42.8397 -85.0061 261° West 405 466 32,000  Level Chicago Center
07:12PM 42.8239 -85.1567 262° West 403 464 32,000  Level Chicago Center
07:13PM 42.8033 -85.3392 261° West 404 465 32,000 -1,320 Level Chicago Center
07:14PM 42.7875 -85.4917 262° West 406 467 29,300 -2,760 Descending Chicago Center
07:15PM 42.7608 -85.6397 256° West 402 463 26,400 -2,640 Descending Chicago Center
07:16PM 42.7350 -85.7836 256° West 393 452 23,900 -2,400 Descending Chicago Center
07:17PM 42.7108 -85.9192 256° West 374 430 21,500 -1,920 Descending Chicago Center
07:18PM 42.6872 -86.0492 256° West 359 413 20,000 -780 Descending Chicago Center
07:19PM 42.6628 -86.1769 255° West 350 403 20,000  Level Chicago Center
07:20PM 42.6386 -86.3083 256° West 354 407 20,000  Level Chicago Center
07:21PM 42.6069 -86.4711 255° West 369 425 20,000 -240 Level Chicago Center
07:22PM 42.5817 -86.6078 256° West 372 428 19,600 -1,620 Descending Chicago Center
07:23PM 42.5575 -86.7467 257° West 370 426 16,700 -2,700 Descending Chicago Center
07:24PM 42.5236 -86.8642 249° West 349 402 14,100 -2,280 Descending Chicago Center
07:25PM 42.4925 -86.9761 249° West 327 376 12,100 -1,920 Descending Chicago Center
07:26PM 42.4658 -87.0719 249° West 283 326 10,200 -1,560 Descending Chicago Center
07:27PM 42.4353 -87.1786 249° West 259 298 9,000 -600 Descending Chicago Center
07:28PM 42.4125 -87.2653 250° West 248 285 9,000 -60 Level Chicago Center
07:29PM 42.3917 -87.3519 252° West 245 282 8,900 -480 Descending Chicago Center
07:30PM 42.3692 -87.4381 251° West 246 283 8,000 -840 Descending Chicago Center
07:31PM 42.3317 -87.5233 239° Southwest 249 287 7,200 -540 Descending Chicago Center
07:32PM 42.2769 -87.5856 220° Southwest 229 264 7,000 -300 Descending Chicago Center
07:33PM 42.2364 -87.6308 220° Southwest 191 220 6,700 -540 Descending Chicago Center
07:34PM 42.2042 -87.6717 223° Southwest 161 185 5,900 -780 Descending Chicago Center
07:35PM 42.1714 -87.7067 218° Southwest 154 177 5,200 -840 Descending Chicago Center
07:36PM 42.1347 -87.7425 216° Southwest 161 185 4,300 -1,080 Descending Chicago Center
07:37PM 42.1167 -87.7667 225° Southwest 179 206 3,800 -1,140 Descending Chicago TRACON
07:38PM 42.0833 -87.8000 217° Southwest 166 191 2,900 -900 Descending Chicago TRACON